createdAt,value
2022-09-03T00:11:52.004Z,37.3235
2022-09-03T00:26:53.935Z,37.7457
2022-09-03T00:41:55.769Z,36.6345
2022-09-03T00:56:57.710Z,36.7806
2022-09-03T01:11:59.671Z,36.0495
2022-09-03T01:27:01.582Z,35.8217
2022-09-03T01:42:03.533Z,34.6127
2022-09-03T01:57:05.393Z,34.8337
2022-09-03T02:12:10.660Z,34.5409
2022-09-03T02:27:12.550Z,35.2986
2022-09-03T02:42:14.461Z,35.0157
2022-09-03T02:57:16.371Z,35.3079
2022-09-03T03:12:22.853Z,34.4171
2022-09-03T03:27:24.718Z,34.0958
2022-09-03T03:42:26.585Z,35.2757
2022-09-03T03:57:28.538Z,34.5799
2022-09-03T04:12:30.441Z,34.154
2022-09-03T04:27:32.311Z,33.1041
2022-09-03T04:42:34.212Z,34.0141
2022-09-03T04:57:36.618Z,33.803
2022-09-03T05:12:38.547Z,33.8092
2022-09-03T05:27:40.407Z,32.9419
2022-09-03T05:42:42.313Z,33.5461
2022-09-03T05:57:44.273Z,35.1742
2022-09-03T06:12:47.272Z,34.3781
2022-09-03T06:27:49.311Z,31.8493
2022-09-03T06:42:51.214Z,31.5373
2022-09-03T06:57:53.148Z,32.0245
2022-09-03T07:12:55.575Z,32.9345
2022-09-03T07:27:57.515Z,33.7244
2022-09-03T07:42:59.407Z,28.5956
2022-09-03T07:58:01.309Z,32.8336
2022-09-03T08:13:03.194Z,29.3657
2022-09-03T08:28:05.103Z,33.2527
2022-09-03T08:43:07.066Z,32.1997
2022-09-03T08:58:08.966Z,31.2377
2022-09-03T09:13:10.861Z,29.6746
2022-09-03T09:28:12.759Z,29.0828
2022-09-03T09:43:14.698Z,29.6022
2022-09-03T09:58:16.603Z,29.2289
2022-09-03T10:13:18.528Z,29.1441
2022-09-03T10:28:20.496Z,28.686
2022-09-03T10:43:22.401Z,28.4712
2022-09-03T10:58:24.519Z,28.1301
2022-09-03T11:13:26.500Z,28.1004
2022-09-03T11:28:28.389Z,28.2756
2022-09-03T11:43:30.340Z,27.4863
2022-09-03T11:58:32.281Z,28.3146
2022-09-03T12:13:34.192Z,27.3532
2022-09-03T12:28:36.057Z,27.8014
2022-09-03T12:43:39.214Z,27.5346
2022-09-03T12:58:41.412Z,27.3365
2022-09-03T13:13:43.317Z,27.2715
2022-09-03T13:28:45.255Z,26.6704
2022-09-03T13:43:47.149Z,26.5045
2022-09-03T13:58:49.036Z,26.3906
2022-09-03T14:13:50.939Z,26.9657
2022-09-03T14:28:52.835Z,26.6277
2022-09-03T14:43:54.738Z,26.2897
2022-09-03T14:58:58.674Z,25.7598
2022-09-03T15:14:00.679Z,26.2767
2022-09-03T15:29:02.669Z,26.4587
2022-09-03T15:44:04.594Z,26.5008
2022-09-03T15:59:06.483Z,26.3256
2022-09-03T16:14:08.383Z,26.1015
2022-09-03T16:29:10.307Z,27.3978
2022-09-03T16:44:12.238Z,28.1778
2022-09-03T16:59:14.137Z,29.5236
2022-09-03T17:14:16.041Z,30.0566
2022-09-03T17:29:19.085Z,29.5923
2022-09-03T17:44:22.102Z,29.3292
2022-09-03T17:59:24.039Z,29.9334
2022-09-03T18:14:25.932Z,30.2064
2022-09-03T18:29:27.842Z,30.4565
2022-09-03T18:44:29.747Z,30.3692
2022-09-03T18:59:31.637Z,30.4633
2022-09-03T19:14:33.523Z,30.0993
2022-09-03T19:29:35.475Z,30.5122
2022-09-03T19:44:37.364Z,30.636
2022-09-03T19:59:39.265Z,31.3411
2022-09-03T20:14:41.186Z,31.9713
2022-09-03T20:29:43.065Z,31.4222
2022-09-03T20:44:44.892Z,30.9907
2022-09-03T20:59:46.817Z,31.8642
2022-09-03T21:14:48.765Z,31.6339
2022-09-03T21:29:52.787Z,32.3297
2022-09-03T21:44:54.690Z,32.9339
2022-09-03T21:59:56.604Z,32.9469
2022-09-03T22:14:58.472Z,33.2948
2022-09-03T22:30:00.386Z,33.1357
2022-09-03T22:45:02.331Z,33.2824
2022-09-03T23:00:04.983Z,34.0958
2022-09-03T23:15:06.911Z,34.7427
2022-09-03T23:30:09.673Z,34.4895
2022-09-03T23:45:15.599Z,34.4796
